createdAt,value
2017-05-29T00:00:11.193Z,55.85
2017-05-29T00:01:12.562Z,56.14
2017-05-29T00:02:13.953Z,55.18
2017-05-29T00:03:15.334Z,55.85
2017-05-29T00:04:16.722Z,56.14
2017-05-29T00:05:18.147Z,55.37
2017-05-29T00:06:19.516Z,55.46
2017-05-29T00:07:22.795Z,55.85
2017-05-29T00:08:24.173Z,56.14
2017-05-29T00:09:25.727Z,55.76
2017-05-29T00:10:27.122Z,55.85
2017-05-29T00:11:28.452Z,55.76
2017-05-29T00:12:29.825Z,55.85
2017-05-29T00:13:31.271Z,55.27
2017-05-29T00:14:32.650Z,56.04
2017-05-29T00:15:34.169Z,55.94
2017-05-29T00:16:35.542Z,55.76
2017-05-29T00:17:37.071Z,55.76
2017-05-29T00:18:38.352Z,55.18
2017-05-29T00:19:39.730Z,55.46
2017-05-29T00:20:41.088Z,56.14
2017-05-29T00:21:42.577Z,56.04
2017-05-29T00:22:44.073Z,55.46
2017-05-29T00:23:46.216Z,55.15
2017-05-29T00:24:47.586Z,55.15
2017-05-29T00:25:48.952Z,56.04
2017-05-29T00:26:50.363Z,55.66
2017-05-29T00:27:51.804Z,56.14
2017-05-29T00:28:53.148Z,56.14
2017-05-29T00:29:56.300Z,55.63
2017-05-29T00:30:57.822Z,55.53
2017-05-29T00:31:59.288Z,56.01
2017-05-29T00:33:00.696Z,56.01
2017-05-29T00:34:02.725Z,56.14
2017-05-29T00:35:04.099Z,56.21
2017-05-29T00:36:05.463Z,55.91
2017-05-29T00:37:06.833Z,55.91
2017-05-29T00:38:08.198Z,55.91
2017-05-29T00:39:09.568Z,55.91
2017-05-29T00:40:10.931Z,56.30
2017-05-29T00:41:12.294Z,56.11
2017-05-29T00:42:13.663Z,56.11
2017-05-29T00:43:15.727Z,56.40
2017-05-29T00:44:17.097Z,56.30
2017-05-29T00:45:18.504Z,56.49
2017-05-29T00:46:19.902Z,56.21
2017-05-29T00:47:21.265Z,56.11
2017-05-29T00:48:23.224Z,56.11
2017-05-29T00:49:24.618Z,56.68
2017-05-29T00:50:25.986Z,56.78
2017-05-29T00:51:27.356Z,56.49
2017-05-29T00:52:28.766Z,56.88
2017-05-29T00:53:30.129Z,56.68
2017-05-29T00:54:31.484Z,56.88
2017-05-29T00:55:32.853Z,56.78
2017-05-29T00:56:34.216Z,56.30
2017-05-29T00:57:35.548Z,57.07
2017-05-29T00:58:37.006Z,56.98
2017-05-29T00:59:38.410Z,57.55
2017-05-29T01:00:39.801Z,58.03
2017-05-29T01:01:41.163Z,57.45
2017-05-29T01:02:42.606Z,57.75
2017-05-29T01:03:43.972Z,57.26
2017-05-29T01:04:45.424Z,57.55
2017-05-29T01:05:46.803Z,57.36
2017-05-29T01:06:48.168Z,58.03
2017-05-29T01:07:49.530Z,57.75
2017-05-29T01:08:50.898Z,57.75
2017-05-29T01:09:52.266Z,58.03
2017-05-29T01:10:53.636Z,57.55
2017-05-29T01:11:54.993Z,58.51
2017-05-29T01:12:56.365Z,58.22
2017-05-29T01:13:57.951Z,57.84
2017-05-29T01:14:59.311Z,58.13
2017-05-29T01:16:00.678Z,58.22
2017-05-29T01:17:02.085Z,58.32
2017-05-29T01:18:03.446Z,58.32
2017-05-29T01:19:04.819Z,58.13
2017-05-29T01:20:06.184Z,57.93
2017-05-29T01:21:07.588Z,58.22
2017-05-29T01:22:08.975Z,57.52
2017-05-29T01:23:10.357Z,58.03
2017-05-29T01:24:11.720Z,57.93
2017-05-29T01:25:13.099Z,58.03
2017-05-29T01:26:14.518Z,58.13
2017-05-29T01:27:15.902Z,57.65
2017-05-29T01:28:17.264Z,57.93
2017-05-29T01:29:18.646Z,57.93
2017-05-29T01:30:20.035Z,58.03
2017-05-29T01:31:21.404Z,58.13
2017-05-29T01:32:22.804Z,58.00
2017-05-29T01:33:24.177Z,58.39
2017-05-29T01:34:25.549Z,58.32
2017-05-29T01:35:26.914Z,58.29
2017-05-29T01:36:28.281Z,58.32
2017-05-29T01:37:29.646Z,58.29
2017-05-29T01:38:31.006Z,58.58
2017-05-29T01:39:32.375Z,58.42
2017-05-29T01:40:33.807Z,58.58
2017-05-29T01:41:35.175Z,58.58
2017-05-29T01:42:36.541Z,58.48
2017-05-29T01:43:37.898Z,58.58
2017-05-29T01:44:39.265Z,58.48
2017-05-29T01:45:40.800Z,58.48
2017-05-29T01:46:42.172Z,58.48
2017-05-29T01:47:43.555Z,58.58
2017-05-29T01:48:44.916Z,58.48
2017-05-29T01:49:46.284Z,58.58
2017-05-29T01:50:47.660Z,58.58
2017-05-29T01:51:49.031Z,58.58
2017-05-29T01:52:50.611Z,58.58
2017-05-29T01:53:51.940Z,58.48
2017-05-29T01:54:53.315Z,58.58
2017-05-29T01:55:54.706Z,58.39
2017-05-29T01:56:56.089Z,58.39
2017-05-29T01:57:57.453Z,58.67
2017-05-29T01:58:58.815Z,58.67
2017-05-29T02:00:00.173Z,58.48
2017-05-29T02:01:01.541Z,58.39
2017-05-29T02:02:02.899Z,58.77
2017-05-29T02:03:04.267Z,58.58
2017-05-29T02:04:05.634Z,58.48
2017-05-29T02:05:07.007Z,58.67
2017-05-29T02:06:08.322Z,58.29
2017-05-29T02:07:09.675Z,58.48
2017-05-29T02:08:11.042Z,58.77
2017-05-29T02:09:12.406Z,58.67
2017-05-29T02:10:13.772Z,58.29
2017-05-29T02:11:15.152Z,58.48
2017-05-29T02:12:16.532Z,58.58
2017-05-29T02:13:17.883Z,58.39
2017-05-29T02:14:19.243Z,58.58
2017-05-29T02:15:20.613Z,58.58
2017-05-29T02:16:21.987Z,58.67
2017-05-29T02:17:23.346Z,58.29
2017-05-29T02:18:24.733Z,58.58
2017-05-29T02:19:26.769Z,58.58
2017-05-29T02:20:28.131Z,58.67
2017-05-29T02:21:29.647Z,58.58
2017-05-29T02:22:31.009Z,58.20
2017-05-29T02:23:32.378Z,58.58
2017-05-29T02:24:33.755Z,58.77
2017-05-29T02:25:35.154Z,58.87
2017-05-29T02:26:36.592Z,58.48
2017-05-29T02:27:38.018Z,58.48
2017-05-29T02:28:39.460Z,58.58
2017-05-29T02:29:40.879Z,58.48
2017-05-29T02:30:42.253Z,58.67
2017-05-29T02:31:44.234Z,58.29
2017-05-29T02:32:45.602Z,58.58
2017-05-29T02:33:47.009Z,58.58
2017-05-29T02:34:48.557Z,58.58
2017-05-29T02:35:49.937Z,58.58
2017-05-29T02:36:51.376Z,58.58
2017-05-29T02:37:52.849Z,58.77
2017-05-29T02:38:54.295Z,58.29
2017-05-29T02:39:55.676Z,58.48
2017-05-29T02:40:57.748Z,58.87
2017-05-29T02:41:59.742Z,58.29
2017-05-29T02:43:01.144Z,58.39
2017-05-29T02:44:02.580Z,59.06
2017-05-29T02:45:03.949Z,58.96
2017-05-29T02:46:05.334Z,58.96
2017-05-29T02:47:06.700Z,59.25
2017-05-29T02:48:08.069Z,58.87
2017-05-29T02:49:09.428Z,58.67
2017-05-29T02:50:10.798Z,58.77
2017-05-29T02:51:12.211Z,58.67
2017-05-29T02:52:13.598Z,58.77
2017-05-29T02:53:14.972Z,58.96
2017-05-29T02:54:16.336Z,58.67
2017-05-29T02:55:17.726Z,58.74
2017-05-29T02:56:19.141Z,58.96
2017-05-29T02:57:20.523Z,58.77
2017-05-29T02:58:21.891Z,58.96
2017-05-29T02:59:23.258Z,58.77
2017-05-29T03:00:24.668Z,58.67
2017-05-29T03:01:26.061Z,58.96
2017-05-29T03:02:27.469Z,59.54
2017-05-29T03:03:28.887Z,60.57
2017-05-29T03:04:30.289Z,61.43
2017-05-29T03:05:31.669Z,60.75
2017-05-29T03:06:33.103Z,60.38
2017-05-29T03:07:34.525Z,60.28
2017-05-29T03:08:35.914Z,60.57
2017-05-29T03:09:37.320Z,60.85
2017-05-29T03:10:38.729Z,60.38
2017-05-29T03:11:40.102Z,61.72
2017-05-29T03:12:41.465Z,61.62
2017-05-29T03:13:42.831Z,62.10
2017-05-29T03:14:44.205Z,62.68
2017-05-29T03:15:45.646Z,63.06
2017-05-29T03:16:47.019Z,64.02
2017-05-29T03:17:48.392Z,63.83
2017-05-29T03:18:49.765Z,64.02
2017-05-29T03:19:51.134Z,63.45
2017-05-29T03:20:52.496Z,64.02
2017-05-29T03:21:53.868Z,63.83
2017-05-29T03:22:55.245Z,63.92
2017-05-29T03:23:56.614Z,64.12
2017-05-29T03:24:58.067Z,64.02
2017-05-29T03:25:59.443Z,63.92
2017-05-29T03:27:00.808Z,64.02
2017-05-29T03:28:02.183Z,64.89
2017-05-29T03:29:03.637Z,64.22
2017-05-29T03:30:05.000Z,64.31
2017-05-29T03:31:06.392Z,64.50
2017-05-29T03:32:07.755Z,64.69
2017-05-29T03:33:09.152Z,65.27
2017-05-29T03:34:10.510Z,65.27
2017-05-29T03:35:11.887Z,65.27
2017-05-29T03:36:13.260Z,65.27
2017-05-29T03:37:14.625Z,65.46
2017-05-29T03:38:16.010Z,65.46
2017-05-29T03:39:17.379Z,65.65
2017-05-29T03:40:18.750Z,65.94
2017-05-29T03:41:20.113Z,65.75
2017-05-29T03:42:21.488Z,65.84
2017-05-29T03:43:22.856Z,66.33
2017-05-29T03:44:24.261Z,66.58
2017-05-29T03:45:25.629Z,66.67
2017-05-29T03:46:27.020Z,66.77
2017-05-29T03:47:28.386Z,66.67
2017-05-29T03:48:29.762Z,66.71
2017-05-29T03:49:31.123Z,66.58
2017-05-29T03:50:32.496Z,67.06
2017-05-29T03:51:33.868Z,67.06
2017-05-29T03:52:35.243Z,66.67
2017-05-29T03:53:36.619Z,66.77
2017-05-29T03:54:37.989Z,66.96
2017-05-29T03:55:39.359Z,67.16
2017-05-29T03:56:40.728Z,66.86
2017-05-29T03:57:42.099Z,66.80
2017-05-29T03:58:43.479Z,66.86
2017-05-29T03:59:44.869Z,67.25
2017-05-29T04:00:46.242Z,66.77
2017-05-29T04:01:47.619Z,67.06
2017-05-29T04:02:49.009Z,66.86
2017-05-29T04:03:50.383Z,67.06
2017-05-29T04:04:51.756Z,66.86
2017-05-29T04:05:53.126Z,67.25
2017-05-29T04:06:54.495Z,66.77
2017-05-29T04:07:55.859Z,66.77
2017-05-29T04:08:57.225Z,66.77
2017-05-29T04:09:58.623Z,66.58
2017-05-29T04:10:59.986Z,66.77
2017-05-29T04:12:01.350Z,66.67
2017-05-29T04:13:02.730Z,66.39
2017-05-29T04:14:04.125Z,66.96
2017-05-29T04:15:05.537Z,66.77
2017-05-29T04:16:06.910Z,66.23
2017-05-29T04:17:08.281Z,66.13
2017-05-29T04:18:09.658Z,66.80
2017-05-29T04:19:11.043Z,66.61
2017-05-29T04:20:12.406Z,66.90
2017-05-29T04:21:13.807Z,67.00
2017-05-29T04:22:15.239Z,66.77
2017-05-29T04:23:16.615Z,65.84
2017-05-29T04:24:17.987Z,66.23
2017-05-29T04:25:19.360Z,66.52
2017-05-29T04:26:20.727Z,65.94
2017-05-29T04:27:22.163Z,65.75
2017-05-29T04:28:23.536Z,65.36
2017-05-29T04:29:24.947Z,65.75
2017-05-29T04:30:26.313Z,65.36
2017-05-29T04:31:27.682Z,65.65
2017-05-29T04:32:29.055Z,65.56
2017-05-29T04:33:30.424Z,65.75
2017-05-29T04:34:31.800Z,65.94
2017-05-29T04:35:33.165Z,65.84
2017-05-29T04:36:34.546Z,65.65
2017-05-29T04:37:35.906Z,65.36
2017-05-29T04:38:37.275Z,66.13
2017-05-29T04:39:38.647Z,65.75
2017-05-29T04:40:40.012Z,65.56
2017-05-29T04:41:41.385Z,65.46
2017-05-29T04:42:42.751Z,65.56
2017-05-29T04:43:44.151Z,65.75
2017-05-29T04:44:45.517Z,65.75
2017-05-29T04:45:46.888Z,65.27
2017-05-29T04:46:48.280Z,65.27
2017-05-29T04:47:49.651Z,65.27
2017-05-29T04:48:51.013Z,64.98
2017-05-29T04:49:52.389Z,65.17
2017-05-29T04:50:53.762Z,64.89
2017-05-29T04:51:55.130Z,64.89
2017-05-29T04:52:56.511Z,64.79
2017-05-29T04:53:57.877Z,64.69
2017-05-29T04:54:59.242Z,64.89
2017-05-29T04:56:00.620Z,65.27
2017-05-29T04:57:01.997Z,65.17
2017-05-29T04:58:03.374Z,64.89
2017-05-29T04:59:04.802Z,65.36
2017-05-29T05:00:06.234Z,65.27
2017-05-29T05:01:07.556Z,65.08
2017-05-29T05:02:09.011Z,64.69
2017-05-29T05:03:11.286Z,64.50
2017-05-29T05:04:12.691Z,64.63
2017-05-29T05:05:14.065Z,64.25
2017-05-29T05:06:15.440Z,64.15
2017-05-29T05:07:16.829Z,64.05
2017-05-29T05:08:18.222Z,64.34
2017-05-29T05:09:19.591Z,63.76
2017-05-29T05:10:20.968Z,64.15
2017-05-29T05:11:22.361Z,63.96
2017-05-29T05:12:23.759Z,63.86
2017-05-29T05:13:25.133Z,63.38
2017-05-29T05:14:26.518Z,62.90
2017-05-29T05:15:27.918Z,62.23
2017-05-29T05:16:29.301Z,62.61
2017-05-29T05:17:30.675Z,62.13
2017-05-29T05:18:32.049Z,62.16
2017-05-29T05:19:33.425Z,61.84
2017-05-29T05:20:34.796Z,62.26
2017-05-29T05:21:36.179Z,61.20
2017-05-29T05:22:37.549Z,61.11
2017-05-29T05:23:38.918Z,60.91
2017-05-29T05:24:40.296Z,61.68
2017-05-29T05:25:41.667Z,61.20
2017-05-29T05:26:43.033Z,61.01
2017-05-29T05:27:44.397Z,61.01
2017-05-29T05:28:45.766Z,61.01
2017-05-29T05:29:47.140Z,61.30
2017-05-29T05:30:48.543Z,60.72
2017-05-29T05:31:49.930Z,60.43
2017-05-29T05:32:51.309Z,60.43
2017-05-29T05:33:52.686Z,60.82
2017-05-29T05:34:54.060Z,60.82
2017-05-29T05:35:55.438Z,60.82
2017-05-29T05:36:56.807Z,60.53
2017-05-29T05:37:58.228Z,60.53
2017-05-29T05:38:59.741Z,60.91
2017-05-29T05:40:01.194Z,60.43
2017-05-29T05:41:03.273Z,60.43
2017-05-29T05:42:04.640Z,60.56
2017-05-29T05:43:06.033Z,59.57
2017-05-29T05:44:07.405Z,60.05
2017-05-29T05:45:08.782Z,59.60
2017-05-29T05:46:10.174Z,59.79
2017-05-29T05:47:11.557Z,59.79
2017-05-29T05:48:12.927Z,59.89
2017-05-29T05:49:14.389Z,60.17
2017-05-29T05:50:15.754Z,59.50
2017-05-29T05:51:17.129Z,59.79
2017-05-29T05:52:18.518Z,59.89
2017-05-29T05:53:19.891Z,59.89
2017-05-29T05:54:21.266Z,59.99
2017-05-29T05:55:22.648Z,59.99
2017-05-29T05:56:24.011Z,59.72
2017-05-29T05:57:25.385Z,59.22
2017-05-29T05:58:26.759Z,59.44
2017-05-29T05:59:28.134Z,59.24
2017-05-29T06:00:29.574Z,59.34
2017-05-29T06:01:30.929Z,59.15
2017-05-29T06:02:32.343Z,59.34
2017-05-29T06:03:33.736Z,58.95
2017-05-29T06:04:35.204Z,58.95
2017-05-29T06:05:36.572Z,58.95
2017-05-29T06:06:38.065Z,58.67
2017-05-29T06:07:39.491Z,58.47
2017-05-29T06:08:40.862Z,58.76
2017-05-29T06:09:42.249Z,58.37
2017-05-29T06:10:43.625Z,58.09
2017-05-29T06:11:45.023Z,57.99
2017-05-29T06:12:46.391Z,58.18
2017-05-29T06:13:47.898Z,57.80
2017-05-29T06:14:49.272Z,57.83
2017-05-29T06:15:51.295Z,57.92
2017-05-29T06:16:52.677Z,58.09
2017-05-29T06:17:54.779Z,58.02
2017-05-29T06:18:56.146Z,58.02
2017-05-29T06:19:57.515Z,57.35
2017-05-29T06:20:58.895Z,56.58
2017-05-29T06:22:00.261Z,56.58
2017-05-29T06:23:01.634Z,55.23
2017-05-29T06:24:03.011Z,54.75
2017-05-29T06:25:04.376Z,54.08
2017-05-29T06:26:05.791Z,53.98
2017-05-29T06:27:07.791Z,54.08
2017-05-29T06:28:09.168Z,54.08
2017-05-29T06:29:10.563Z,53.98
2017-05-29T06:30:11.954Z,54.27
2017-05-29T06:31:13.325Z,53.88
2017-05-29T06:32:14.695Z,53.50
2017-05-29T06:33:16.104Z,53.59
2017-05-29T06:34:17.473Z,53.31
2017-05-29T06:35:18.901Z,53.21
2017-05-29T06:36:20.301Z,53.40
2017-05-29T06:37:21.691Z,53.21
2017-05-29T06:38:23.101Z,53.31
2017-05-29T06:39:24.472Z,52.63
2017-05-29T06:40:25.867Z,52.83
2017-05-29T06:41:27.260Z,52.83
2017-05-29T06:42:28.640Z,53.14
2017-05-29T06:43:30.037Z,52.85
2017-05-29T06:44:31.436Z,52.66
2017-05-29T06:45:32.922Z,53.05
2017-05-29T06:46:35.431Z,52.95
2017-05-29T06:47:37.806Z,52.95
2017-05-29T06:48:39.795Z,52.95
2017-05-29T06:49:41.796Z,52.47
2017-05-29T06:50:43.213Z,52.47
2017-05-29T06:51:47.312Z,52.56
2017-05-29T06:52:48.768Z,51.41
2017-05-29T06:53:50.186Z,51.62
2017-05-29T06:54:51.546Z,51.72
2017-05-29T06:55:52.945Z,52.49
2017-05-29T06:56:55.310Z,52.20
2017-05-29T06:57:58.306Z,51.82
2017-05-29T06:58:59.707Z,51.92
2017-05-29T07:00:01.076Z,51.62
2017-05-29T07:01:02.490Z,51.72
2017-05-29T07:02:04.799Z,51.53
2017-05-29T07:03:06.804Z,51.82
2017-05-29T07:04:08.836Z,51.43
2017-05-29T07:05:10.514Z,50.85
2017-05-29T07:06:12.864Z,51.34
2017-05-29T07:07:14.320Z,51.46
2017-05-29T07:08:15.706Z,51.75
2017-05-29T07:09:17.081Z,51.65
2017-05-29T07:10:18.479Z,51.07
2017-05-29T07:11:19.895Z,50.69
2017-05-29T07:12:21.805Z,50.69
2017-05-29T07:13:23.296Z,50.40
2017-05-29T07:14:26.320Z,50.11
2017-05-29T07:15:28.328Z,50.21
2017-05-29T07:16:29.779Z,49.82
2017-05-29T07:17:31.837Z,49.91
2017-05-29T07:18:33.246Z,50.11
2017-05-29T07:19:35.316Z,49.73
2017-05-29T07:20:37.304Z,49.94
2017-05-29T07:21:38.691Z,49.84
2017-05-29T07:22:41.789Z,49.46
2017-05-29T07:23:45.788Z,49.75
2017-05-29T07:24:48.794Z,49.55
2017-05-29T07:25:51.794Z,49.65
2017-05-29T07:26:54.802Z,49.65
2017-05-29T07:27:56.177Z,49.65
2017-05-29T07:28:58.300Z,49.55
2017-05-29T07:29:59.667Z,49.46
2017-05-29T07:31:01.056Z,49.39
2017-05-29T07:32:03.300Z,49.46
2017-05-29T07:33:04.679Z,49.68
2017-05-29T07:34:06.099Z,49.55
2017-05-29T07:35:07.495Z,49.29
2017-05-29T07:36:08.875Z,49.68
2017-05-29T07:37:10.281Z,48.90
2017-05-29T07:38:13.330Z,48.90
2017-05-29T07:39:14.718Z,48.81
2017-05-29T07:40:17.035Z,48.33
2017-05-29T07:41:19.315Z,48.42
2017-05-29T07:42:20.696Z,48.23
2017-05-29T07:43:23.796Z,48.52
2017-05-29T07:44:25.169Z,48.42
2017-05-29T07:45:26.624Z,48.23
2017-05-29T07:46:28.835Z,48.16
2017-05-29T07:47:30.238Z,48.44
2017-05-29T07:48:31.628Z,48.74
2017-05-29T07:49:33.004Z,48.16
2017-05-29T07:50:35.345Z,48.23
2017-05-29T07:51:36.721Z,48.35
2017-05-29T07:52:38.823Z,48.44
2017-05-29T07:53:40.817Z,48.54
2017-05-29T07:54:42.809Z,48.54
2017-05-29T07:55:44.807Z,48.35
2017-05-29T07:56:46.173Z,48.25
2017-05-29T07:57:48.316Z,48.25
2017-05-29T07:58:50.316Z,48.44
2017-05-29T07:59:52.307Z,48.06
2017-05-29T08:00:54.305Z,47.99
2017-05-29T08:01:57.309Z,47.99
2017-05-29T08:03:00.312Z,47.80
2017-05-29T08:04:02.308Z,47.89
2017-05-29T08:05:04.314Z,48.06
2017-05-29T08:06:05.737Z,47.96
2017-05-29T08:07:07.109Z,48.06
2017-05-29T08:08:08.494Z,48.08
2017-05-29T08:09:09.874Z,47.80
2017-05-29T08:10:11.888Z,48.08
2017-05-29T08:11:13.226Z,47.60
2017-05-29T08:12:14.609Z,47.99
2017-05-29T08:13:17.804Z,47.60
2017-05-29T08:14:19.234Z,47.70
2017-05-29T08:15:20.597Z,47.70
2017-05-29T08:16:22.838Z,47.60
2017-05-29T08:17:24.221Z,47.60
2017-05-29T08:18:26.312Z,47.89
2017-05-29T08:19:28.314Z,47.99
2017-05-29T08:20:29.730Z,47.91
2017-05-29T08:21:31.828Z,48.01
2017-05-29T08:22:33.207Z,47.53
2017-05-29T08:23:34.629Z,47.63
2017-05-29T08:24:36.812Z,47.63
2017-05-29T08:25:38.210Z,47.63
2017-05-29T08:26:39.589Z,47.33
2017-05-29T08:27:42.813Z,47.81
2017-05-29T08:28:44.817Z,47.33
2017-05-29T08:29:46.277Z,47.14
2017-05-29T08:30:48.318Z,47.14
2017-05-29T08:31:49.783Z,46.95
2017-05-29T08:32:51.180Z,46.95
2017-05-29T08:33:52.553Z,46.85
2017-05-29T08:34:54.810Z,46.88
2017-05-29T08:35:56.814Z,46.85
2017-05-29T08:36:58.196Z,47.05
2017-05-29T08:38:00.348Z,46.97
2017-05-29T08:39:03.325Z,46.66
2017-05-29T08:40:05.317Z,46.56
2017-05-29T08:41:06.743Z,46.68
2017-05-29T08:42:08.816Z,46.10
2017-05-29T08:43:11.817Z,46.49
2017-05-29T08:44:14.825Z,46.49
2017-05-29T08:45:16.827Z,45.62
2017-05-29T08:46:18.199Z,45.52
2017-05-29T08:47:19.577Z,45.23
2017-05-29T08:48:20.957Z,45.04
2017-05-29T08:49:23.329Z,44.75
2017-05-29T08:50:25.323Z,45.04
2017-05-29T08:51:26.696Z,44.75
2017-05-29T08:52:28.077Z,45.42
2017-05-29T08:53:30.335Z,45.25
2017-05-29T08:54:31.724Z,44.87
2017-05-29T08:55:33.111Z,45.06
2017-05-29T08:56:35.474Z,45.35
2017-05-29T08:57:36.846Z,45.54
2017-05-29T08:58:38.228Z,45.54
2017-05-29T08:59:39.629Z,46.90
2017-05-29T09:00:41.020Z,47.19
2017-05-29T09:01:42.398Z,47.58
2017-05-29T09:02:44.382Z,48.06
2017-05-29T09:03:46.478Z,47.96
2017-05-29T09:04:47.866Z,47.86
2017-05-29T09:05:49.904Z,47.96
2017-05-29T09:06:51.303Z,48.16
2017-05-29T09:07:52.745Z,48.25
2017-05-29T09:08:54.825Z,48.27
2017-05-29T09:09:56.221Z,48.37
2017-05-29T09:10:58.345Z,48.35
2017-05-29T09:11:59.751Z,48.76
2017-05-29T09:13:03.938Z,48.47
2017-05-29T09:14:05.320Z,49.05
2017-05-29T09:15:06.722Z,49.63
2017-05-29T09:16:09.843Z,48.66
2017-05-29T09:17:11.259Z,48.76
2017-05-29T09:18:13.347Z,48.18
2017-05-29T09:19:14.725Z,48.08
2017-05-29T09:20:16.108Z,47.99
2017-05-29T09:21:17.491Z,47.79
2017-05-29T09:22:19.882Z,47.79
2017-05-29T09:23:23.082Z,47.69
2017-05-29T09:24:24.449Z,47.79
2017-05-29T09:25:25.828Z,47.41
2017-05-29T09:26:27.213Z,47.50
2017-05-29T09:27:28.612Z,47.31
2017-05-29T09:28:29.988Z,47.31
2017-05-29T09:29:31.373Z,47.02
2017-05-29T09:30:32.752Z,46.63
2017-05-29T09:31:34.144Z,46.83
2017-05-29T09:32:35.522Z,47.11
2017-05-29T09:33:37.925Z,47.31
2017-05-29T09:34:39.355Z,46.83
2017-05-29T09:35:40.733Z,47.41
2017-05-29T09:36:42.135Z,46.83
2017-05-29T09:37:43.511Z,46.83
2017-05-29T09:38:44.975Z,46.92
2017-05-29T09:39:46.402Z,46.36
2017-05-29T09:40:48.345Z,46.15
2017-05-29T09:41:49.739Z,46.17
2017-05-29T09:42:51.118Z,46.25
2017-05-29T09:43:52.497Z,46.63
2017-05-29T09:44:54.833Z,46.17
2017-05-29T09:45:56.845Z,46.08
2017-05-29T09:46:58.234Z,45.88
2017-05-29T09:48:00.339Z,46.26
2017-05-29T09:49:01.725Z,45.98
2017-05-29T09:50:03.110Z,45.98
2017-05-29T09:51:04.534Z,46.17
2017-05-29T09:52:05.908Z,46.26
2017-05-29T09:53:07.285Z,46.48
2017-05-29T09:54:08.676Z,46.17
2017-05-29T09:55:11.846Z,45.98
2017-05-29T09:56:13.242Z,46.56
2017-05-29T09:57:14.651Z,46.46
2017-05-29T09:58:16.851Z,46.17
2017-05-29T09:59:18.845Z,45.88
2017-05-29T10:00:21.994Z,45.81
2017-05-29T10:01:23.370Z,45.49
2017-05-29T10:02:25.352Z,46.26
2017-05-29T10:03:26.732Z,45.90
2017-05-29T10:04:28.837Z,45.61
2017-05-29T10:05:30.237Z,45.81
2017-05-29T10:06:31.639Z,45.71
2017-05-29T10:07:34.893Z,45.51
2017-05-29T10:08:36.262Z,45.90
2017-05-29T10:09:38.343Z,45.51
2017-05-29T10:10:39.717Z,45.81
2017-05-29T10:11:41.100Z,45.51
2017-05-29T10:12:43.378Z,45.42
2017-05-29T10:13:44.750Z,45.83
2017-05-29T10:14:46.145Z,45.92
2017-05-29T10:15:49.412Z,46.48
2017-05-29T10:16:50.810Z,46.22
2017-05-29T10:17:53.847Z,46.22
2017-05-29T10:18:55.851Z,46.89
2017-05-29T10:19:57.228Z,46.70
2017-05-29T10:20:58.602Z,46.41
2017-05-29T10:22:00.860Z,46.31
2017-05-29T10:23:02.272Z,46.12
2017-05-29T10:24:04.356Z,46.60
2017-05-29T10:25:06.349Z,46.41
2017-05-29T10:26:07.729Z,46.12
2017-05-29T10:27:09.110Z,46.70
2017-05-29T10:28:12.533Z,46.31
2017-05-29T10:29:13.919Z,46.41
2017-05-29T10:30:15.863Z,46.60
2017-05-29T10:31:17.855Z,46.70
2017-05-29T10:32:19.233Z,46.82
2017-05-29T10:33:20.620Z,46.89
2017-05-29T10:34:21.999Z,47.19
2017-05-29T10:35:23.387Z,47.11
2017-05-29T10:36:24.769Z,46.72
2017-05-29T10:37:26.143Z,46.92
2017-05-29T10:38:27.523Z,46.24
2017-05-29T10:39:28.908Z,46.53
2017-05-29T10:40:30.364Z,46.62
2017-05-29T10:41:31.653Z,46.72
2017-05-29T10:42:34.865Z,46.43
2017-05-29T10:43:36.255Z,46.04
2017-05-29T10:44:37.626Z,45.78
2017-05-29T10:45:39.006Z,45.65
2017-05-29T10:46:40.387Z,46.04
2017-05-29T10:47:41.775Z,46.14
2017-05-29T10:48:43.154Z,46.33
2017-05-29T10:49:44.535Z,46.72
2017-05-29T10:50:45.903Z,46.53
2017-05-29T10:51:47.277Z,46.82
2017-05-29T10:52:50.348Z,46.92
2017-05-29T10:53:51.721Z,46.84
2017-05-29T10:54:53.098Z,46.65
2017-05-29T10:55:54.520Z,46.55
2017-05-29T10:56:56.898Z,46.43
2017-05-29T10:57:58.275Z,46.82
2017-05-29T10:58:59.670Z,46.92
2017-05-29T11:00:01.292Z,46.72
2017-05-29T11:01:02.678Z,46.82
2017-05-29T11:02:04.074Z,46.53
2017-05-29T11:03:06.366Z,46.72
2017-05-29T11:04:07.747Z,46.04
2017-05-29T11:05:09.340Z,45.48
2017-05-29T11:06:10.750Z,45.48
2017-05-29T11:07:12.124Z,45.48
2017-05-29T11:08:15.350Z,45.68
2017-05-29T11:09:16.733Z,45.78
2017-05-29T11:10:18.899Z,45.68
2017-05-29T11:11:20.294Z,45.58
2017-05-29T11:12:21.793Z,45.20
2017-05-29T11:13:23.178Z,45.10
2017-05-29T11:14:24.577Z,45.10
2017-05-29T11:15:25.965Z,44.90
2017-05-29T11:16:27.349Z,45.00
2017-05-29T11:17:28.785Z,44.81
2017-05-29T11:18:30.173Z,44.71
2017-05-29T11:19:31.635Z,45.00
2017-05-29T11:20:33.013Z,44.90
2017-05-29T11:21:34.391Z,45.20
2017-05-29T11:22:35.794Z,44.90
2017-05-29T11:23:38.518Z,44.81
2017-05-29T11:24:39.903Z,44.92
2017-05-29T11:25:41.863Z,44.83
2017-05-29T11:26:45.862Z,45.31
2017-05-29T11:27:48.867Z,44.92
2017-05-29T11:28:50.305Z,45.02
2017-05-29T11:29:51.938Z,44.83
2017-05-29T11:30:53.410Z,44.44
2017-05-29T11:31:54.806Z,44.54
2017-05-29T11:32:56.192Z,44.44
2017-05-29T11:33:57.586Z,44.54
2017-05-29T11:35:01.881Z,44.73
2017-05-29T11:36:03.337Z,44.81
2017-05-29T11:37:04.716Z,44.73
2017-05-29T11:38:06.099Z,44.71
2017-05-29T11:39:08.378Z,44.90
2017-05-29T11:40:09.763Z,44.64
2017-05-29T11:41:11.147Z,44.44
2017-05-29T11:42:12.524Z,44.54
2017-05-29T11:43:13.910Z,44.24
2017-05-29T11:44:15.306Z,44.44
2017-05-29T11:45:16.689Z,44.46
2017-05-29T11:46:18.078Z,44.27
2017-05-29T11:47:19.460Z,43.88
2017-05-29T11:48:20.834Z,43.49
2017-05-29T11:49:22.243Z,43.49
2017-05-29T11:50:25.362Z,43.01
2017-05-29T11:51:28.367Z,43.30
2017-05-29T11:52:29.750Z,43.49
2017-05-29T11:53:31.127Z,43.59
2017-05-29T11:54:33.389Z,43.40
2017-05-29T11:55:34.771Z,43.40
2017-05-29T11:56:36.159Z,43.40
2017-05-29T11:57:37.535Z,43.88
2017-05-29T11:58:38.910Z,43.49
2017-05-29T11:59:40.283Z,43.59
2017-05-29T12:00:42.372Z,43.40
2017-05-29T12:01:43.794Z,42.91
2017-05-29T12:02:45.174Z,42.43
2017-05-29T12:03:48.372Z,42.33
2017-05-29T12:04:49.806Z,42.64
2017-05-29T12:05:51.188Z,42.61
2017-05-29T12:06:52.568Z,42.52
2017-05-29T12:07:53.980Z,42.71
2017-05-29T12:08:55.453Z,42.61
2017-05-29T12:09:56.970Z,42.35
2017-05-29T12:10:58.872Z,42.05
2017-05-29T12:12:00.259Z,42.25
2017-05-29T12:13:02.380Z,42.25
2017-05-29T12:14:03.759Z,42.03
2017-05-29T12:15:05.874Z,42.13
2017-05-29T12:16:08.881Z,41.96
2017-05-29T12:17:10.311Z,41.94
2017-05-29T12:18:11.696Z,41.74
2017-05-29T12:19:13.086Z,42.03
2017-05-29T12:20:14.472Z,42.13
2017-05-29T12:21:15.861Z,41.74
2017-05-29T12:22:17.249Z,41.94
2017-05-29T12:23:18.731Z,41.67
2017-05-29T12:24:20.135Z,41.57
2017-05-29T12:25:22.381Z,41.86
2017-05-29T12:26:23.776Z,41.28
2017-05-29T12:27:25.145Z,41.77
2017-05-29T12:28:27.409Z,41.47
2017-05-29T12:29:28.836Z,41.47
2017-05-29T12:30:30.234Z,41.36
2017-05-29T12:31:31.614Z,41.47
2017-05-29T12:32:32.991Z,41.77
2017-05-29T12:33:34.385Z,41.67
2017-05-29T12:34:35.762Z,41.18
2017-05-29T12:35:37.156Z,41.57
2017-05-29T12:36:38.539Z,41.18
2017-05-29T12:37:39.916Z,41.47
2017-05-29T12:38:41.884Z,41.18
2017-05-29T12:39:43.274Z,41.18
2017-05-29T12:40:44.644Z,41.18
2017-05-29T12:41:46.903Z,41.38
2017-05-29T12:42:48.285Z,40.60
2017-05-29T12:43:49.674Z,40.52
2017-05-29T12:44:51.055Z,40.42
2017-05-29T12:45:52.438Z,40.33
2017-05-29T12:46:53.821Z,40.01
2017-05-29T12:47:55.196Z,39.92
2017-05-29T12:48:56.575Z,39.53
2017-05-29T12:49:57.956Z,39.62
2017-05-29T12:50:59.409Z,39.53
2017-05-29T12:52:00.838Z,39.43
2017-05-29T12:53:02.893Z,39.26
2017-05-29T12:54:04.269Z,39.16
2017-05-29T12:55:05.653Z,39.06
2017-05-29T12:56:07.024Z,38.48
2017-05-29T12:57:08.417Z,38.29
2017-05-29T12:58:09.800Z,38.19
2017-05-29T12:59:11.178Z,38.29
2017-05-29T13:00:12.555Z,38.09
2017-05-29T13:01:13.930Z,37.90
2017-05-29T13:02:15.327Z,37.99
2017-05-29T13:03:16.781Z,37.99
2017-05-29T13:04:18.095Z,37.80
2017-05-29T13:05:19.474Z,37.52
2017-05-29T13:06:20.872Z,37.62
2017-05-29T13:07:22.272Z,37.02
2017-05-29T13:08:23.659Z,37.43
2017-05-29T13:09:25.050Z,37.52
2017-05-29T13:10:26.424Z,37.72
2017-05-29T13:11:28.025Z,37.52
2017-05-29T13:12:29.406Z,37.62